sensor_id;sensor_type;location;lat;lon;timestamp;P1;durP1;ratioP1;P2;durP2;ratioP2
32633;SDS011;19043;51.012;5.648;2023-04-06T00:02:13;27.35;;;17.02;;
32633;SDS011;19043;51.012;5.648;2023-04-06T00:04:39;29.92;;;17.17;;
32633;SDS011;19043;51.012;5.648;2023-04-06T00:07:05;25.45;;;17.20;;
32633;SDS011;19043;51.012;5.648;2023-04-06T00:09:30;24.00;;;17.02;;
32633;SDS011;19043;51.012;5.648;2023-04-06T00:11:55;21.27;;;16.30;;
32633;SDS011;19043;51.012;5.648;2023-04-06T00:14:21;22.52;;;17.08;;
32633;SDS011;19043;51.012;5.648;2023-04-06T00:16:46;22.35;;;16.33;;
32633;SDS011;19043;51.012;5.648;2023-04-06T00:19:12;21.60;;;16.65;;
32633;SDS011;19043;51.012;5.648;2023-04-06T00:21:37;25.85;;;16.98;;
32633;SDS011;19043;51.012;5.648;2023-04-06T00:24:02;27.02;;;16.83;;
32633;SDS011;19043;51.012;5.648;2023-04-06T00:26:28;23.95;;;17.05;;
32633;SDS011;19043;51.012;5.648;2023-04-06T00:28:54;25.90;;;16.27;;
32633;SDS011;19043;51.012;5.648;2023-04-06T00:31:19;23.40;;;15.93;;
32633;SDS011;19043;51.012;5.648;2023-04-06T00:33:45;25.80;;;16.83;;
32633;SDS011;19043;51.012;5.648;2023-04-06T00:36:10;28.00;;;16.80;;
32633;SDS011;19043;51.012;5.648;2023-04-06T00:38:35;24.75;;;17.58;;
32633;SDS011;19043;51.012;5.648;2023-04-06T00:41:01;25.42;;;17.45;;
32633;SDS011;19043;51.012;5.648;2023-04-06T00:43:27;24.52;;;16.60;;
32633;SDS011;19043;51.012;5.648;2023-04-06T00:45:53;22.17;;;16.63;;
32633;SDS011;19043;51.012;5.648;2023-04-06T00:48:18;23.65;;;17.33;;
32633;SDS011;19043;51.012;5.648;2023-04-06T00:50:43;26.25;;;17.45;;
32633;SDS011;19043;51.012;5.648;2023-04-06T00:53:08;24.05;;;16.92;;
32633;SDS011;19043;51.012;5.648;2023-04-06T00:55:34;24.08;;;16.58;;
32633;SDS011;19043;51.012;5.648;2023-04-06T00:58:01;25.90;;;16.98;;
32633;SDS011;19043;51.012;5.648;2023-04-06T01:00:26;25.58;;;16.88;;
32633;SDS011;19043;51.012;5.648;2023-04-06T01:02:52;25.67;;;16.42;;
32633;SDS011;19043;51.012;5.648;2023-04-06T01:05:17;30.75;;;18.50;;
32633;SDS011;19043;51.012;5.648;2023-04-06T01:07:43;24.30;;;17.83;;
32633;SDS011;19043;51.012;5.648;2023-04-06T01:10:08;29.90;;;17.35;;
32633;SDS011;19043;51.012;5.648;2023-04-06T01:12:34;23.58;;;17.38;;
32633;SDS011;19043;51.012;5.648;2023-04-06T01:14:59;31.65;;;18.48;;
32633;SDS011;19043;51.012;5.648;2023-04-06T01:17:24;23.10;;;17.50;;
32633;SDS011;19043;51.012;5.648;2023-04-06T01:19:50;26.50;;;17.75;;
32633;SDS011;19043;51.012;5.648;2023-04-06T01:22:16;20.13;;;15.90;;
32633;SDS011;19043;51.012;5.648;2023-04-06T01:24:42;25.98;;;17.98;;
32633;SDS011;19043;51.012;5.648;2023-04-06T01:27:07;24.58;;;17.38;;
32633;SDS011;19043;51.012;5.648;2023-04-06T01:29:32;30.35;;;18.23;;
32633;SDS011;19043;51.012;5.648;2023-04-06T01:31:57;29.33;;;17.35;;
32633;SDS011;19043;51.012;5.648;2023-04-06T01:34:23;27.13;;;18.20;;
32633;SDS011;19043;51.012;5.648;2023-04-06T01:36:48;29.80;;;18.13;;
32633;SDS011;19043;51.012;5.648;2023-04-06T01:39:13;30.65;;;18.38;;
32633;SDS011;19043;51.012;5.648;2023-04-06T01:41:39;25.15;;;16.75;;
32633;SDS011;19043;51.012;5.648;2023-04-06T01:44:04;25.23;;;17.73;;
32633;SDS011;19043;51.012;5.648;2023-04-06T01:46:29;30.55;;;18.35;;
32633;SDS011;19043;51.012;5.648;2023-04-06T01:48:55;24.70;;;17.45;;
32633;SDS011;19043;51.012;5.648;2023-04-06T01:51:20;26.17;;;17.40;;
32633;SDS011;19043;51.012;5.648;2023-04-06T01:53:45;28.25;;;18.45;;
32633;SDS011;19043;51.012;5.648;2023-04-06T01:56:11;27.58;;;17.92;;
32633;SDS011;19043;51.012;5.648;2023-04-06T01:58:36;27.50;;;19.30;;
32633;SDS011;19043;51.012;5.648;2023-04-06T02:01:01;25.30;;;17.98;;
32633;SDS011;19043;51.012;5.648;2023-04-06T02:03:27;26.23;;;18.65;;
32633;SDS011;19043;51.012;5.648;2023-04-06T02:05:52;32.25;;;19.85;;
32633;SDS011;19043;51.012;5.648;2023-04-06T02:08:17;26.75;;;18.60;;
32633;SDS011;19043;51.012;5.648;2023-04-06T02:10:42;28.92;;;19.17;;
32633;SDS011;19043;51.012;5.648;2023-04-06T02:13:08;30.83;;;18.83;;
32633;SDS011;19043;51.012;5.648;2023-04-06T02:15:33;30.05;;;18.83;;
32633;SDS011;19043;51.012;5.648;2023-04-06T02:17:58;28.42;;;17.30;;
32633;SDS011;19043;51.012;5.648;2023-04-06T02:20:24;29.85;;;19.23;;
32633;SDS011;19043;51.012;5.648;2023-04-06T02:22:50;28.70;;;18.23;;
32633;SDS011;19043;51.012;5.648;2023-04-06T02:25:15;25.67;;;18.85;;
32633;SDS011;19043;51.012;5.648;2023-04-06T02:27:40;24.45;;;19.13;;
32633;SDS011;19043;51.012;5.648;2023-04-06T02:30:06;25.55;;;19.52;;
32633;SDS011;19043;51.012;5.648;2023-04-06T02:32:31;27.77;;;19.23;;
32633;SDS011;19043;51.012;5.648;2023-04-06T02:34:56;29.10;;;18.33;;
32633;SDS011;19043;51.012;5.648;2023-04-06T02:37:22;30.00;;;19.90;;
32633;SDS011;19043;51.012;5.648;2023-04-06T02:39:49;30.55;;;18.90;;
32633;SDS011;19043;51.012;5.648;2023-04-06T02:42:14;26.90;;;18.42;;
32633;SDS011;19043;51.012;5.648;2023-04-06T02:44:40;32.45;;;20.10;;
32633;SDS011;19043;51.012;5.648;2023-04-06T02:47:06;28.52;;;19.48;;
32633;SDS011;19043;51.012;5.648;2023-04-06T02:49:31;28.65;;;19.17;;
32633;SDS011;19043;51.012;5.648;2023-04-06T02:51:56;28.05;;;18.75;;
32633;SDS011;19043;51.012;5.648;2023-04-06T02:54:21;25.92;;;18.25;;
32633;SDS011;19043;51.012;5.648;2023-04-06T02:56:47;27.63;;;18.25;;
32633;SDS011;19043;51.012;5.648;2023-04-06T02:59:12;27.27;;;19.25;;
32633;SDS011;19043;51.012;5.648;2023-04-06T03:01:37;27.75;;;18.60;;
32633;SDS011;19043;51.012;5.648;2023-04-06T03:04:02;29.80;;;18.98;;
32633;SDS011;19043;51.012;5.648;2023-04-06T03:06:28;25.73;;;18.67;;
32633;SDS011;19043;51.012;5.648;2023-04-06T03:08:53;25.70;;;17.92;;
32633;SDS011;19043;51.012;5.648;2023-04-06T03:11:18;32.35;;;18.27;;
32633;SDS011;19043;51.012;5.648;2023-04-06T03:13:44;27.80;;;17.50;;
32633;SDS011;19043;51.012;5.648;2023-04-06T03:16:09;26.08;;;18.15;;
32633;SDS011;19043;51.012;5.648;2023-04-06T03:18:35;27.67;;;19.02;;
32633;SDS011;19043;51.012;5.648;2023-04-06T03:21:00;32.00;;;19.42;;
32633;SDS011;19043;51.012;5.648;2023-04-06T03:23:26;26.45;;;19.02;;
32633;SDS011;19043;51.012;5.648;2023-04-06T03:25:51;23.10;;;18.60;;
32633;SDS011;19043;51.012;5.648;2023-04-06T03:28:16;29.33;;;17.98;;
32633;SDS011;19043;51.012;5.648;2023-04-06T03:30:41;27.38;;;19.23;;
32633;SDS011;19043;51.012;5.648;2023-04-06T03:33:07;30.05;;;17.67;;
32633;SDS011;19043;51.012;5.648;2023-04-06T03:35:32;24.38;;;17.27;;
32633;SDS011;19043;51.012;5.648;2023-04-06T03:37:57;31.50;;;17.88;;
32633;SDS011;19043;51.012;5.648;2023-04-06T03:40:23;25.77;;;17.77;;
32633;SDS011;19043;51.012;5.648;2023-04-06T03:42:48;25.98;;;17.70;;
32633;SDS011;19043;51.012;5.648;2023-04-06T03:45:13;28.55;;;18.92;;
32633;SDS011;19043;51.012;5.648;2023-04-06T03:47:39;36.97;;;19.02;;
32633;SDS011;19043;51.012;5.648;2023-04-06T03:50:04;28.88;;;18.48;;
32633;SDS011;19043;51.012;5.648;2023-04-06T03:52:30;28.60;;;18.65;;
32633;SDS011;19043;51.012;5.648;2023-04-06T03:54:55;27.27;;;19.23;;
32633;SDS011;19043;51.012;5.648;2023-04-06T03:57:20;32.40;;;19.38;;
32633;SDS011;19043;51.012;5.648;2023-04-06T03:59:45;27.90;;;19.15;;
32633;SDS011;19043;51.012;5.648;2023-04-06T04:02:11;25.05;;;17.85;;
32633;SDS011;19043;51.012;5.648;2023-04-06T04:04:36;27.23;;;17.90;;
32633;SDS011;19043;51.012;5.648;2023-04-06T04:07:01;26.15;;;17.52;;
32633;SDS011;19043;51.012;5.648;2023-04-06T04:09:27;29.67;;;18.92;;
32633;SDS011;19043;51.012;5.648;2023-04-06T04:11:52;27.88;;;18.58;;
32633;SDS011;19043;51.012;5.648;2023-04-06T04:14:17;34.83;;;18.98;;
32633;SDS011;19043;51.012;5.648;2023-04-06T04:16:42;23.98;;;17.63;;
32633;SDS011;19043;51.012;5.648;2023-04-06T04:19:08;30.35;;;17.90;;
32633;SDS011;19043;51.012;5.648;2023-04-06T04:21:33;28.08;;;18.08;;
32633;SDS011;19043;51.012;5.648;2023-04-06T04:23:58;27.92;;;16.75;;
32633;SDS011;19043;51.012;5.648;2023-04-06T04:26:24;27.75;;;17.80;;
32633;SDS011;19043;51.012;5.648;2023-04-06T04:28:49;30.33;;;18.25;;
32633;SDS011;19043;51.012;5.648;2023-04-06T04:31:15;25.13;;;16.98;;
32633;SDS011;19043;51.012;5.648;2023-04-06T04:33:43;27.02;;;17.30;;
32633;SDS011;19043;51.012;5.648;2023-04-06T04:36:08;28.35;;;18.73;;
32633;SDS011;19043;51.012;5.648;2023-04-06T04:38:35;25.73;;;18.70;;
32633;SDS011;19043;51.012;5.648;2023-04-06T04:41:00;26.30;;;16.92;;
32633;SDS011;19043;51.012;5.648;2023-04-06T04:43:25;28.02;;;18.95;;
32633;SDS011;19043;51.012;5.648;2023-04-06T04:45:51;26.67;;;18.08;;
32633;SDS011;19043;51.012;5.648;2023-04-06T04:48:17;23.63;;;17.35;;
32633;SDS011;19043;51.012;5.648;2023-04-06T04:50:42;24.08;;;17.33;;
32633;SDS011;19043;51.012;5.648;2023-04-06T04:53:07;23.90;;;17.40;;
32633;SDS011;19043;51.012;5.648;2023-04-06T04:55:33;27.80;;;18.33;;
32633;SDS011;19043;51.012;5.648;2023-04-06T04:57:58;23.60;;;16.40;;
32633;SDS011;19043;51.012;5.648;2023-04-06T05:00:23;29.77;;;17.30;;
32633;SDS011;19043;51.012;5.648;2023-04-06T05:02:49;22.67;;;16.10;;
32633;SDS011;19043;51.012;5.648;2023-04-06T05:05:14;24.08;;;16.55;;
32633;SDS011;19043;51.012;5.648;2023-04-06T05:07:40;28.08;;;15.95;;
32633;SDS011;19043;51.012;5.648;2023-04-06T05:10:05;25.80;;;16.65;;
32633;SDS011;19043;51.012;5.648;2023-04-06T05:12:30;25.00;;;17.05;;
32633;SDS011;19043;51.012;5.648;2023-04-06T05:14:56;23.98;;;16.02;;
32633;SDS011;19043;51.012;5.648;2023-04-06T05:17:21;21.50;;;15.45;;
32633;SDS011;19043;51.012;5.648;2023-04-06T05:19:46;22.27;;;15.68;;
32633;SDS011;19043;51.012;5.648;2023-04-06T05:22:12;26.70;;;14.32;;
32633;SDS011;19043;51.012;5.648;2023-04-06T05:24:39;23.60;;;15.80;;
32633;SDS011;19043;51.012;5.648;2023-04-06T05:27:05;21.67;;;14.48;;
32633;SDS011;19043;51.012;5.648;2023-04-06T05:29:30;22.05;;;14.70;;
32633;SDS011;19043;51.012;5.648;2023-04-06T05:31:55;22.23;;;14.63;;
32633;SDS011;19043;51.012;5.648;2023-04-06T05:34:21;19.15;;;14.55;;
32633;SDS011;19043;51.012;5.648;2023-04-06T05:36:46;20.05;;;14.00;;
32633;SDS011;19043;51.012;5.648;2023-04-06T05:39:12;23.67;;;14.85;;
32633;SDS011;19043;51.012;5.648;2023-04-06T05:41:37;21.50;;;14.52;;
32633;SDS011;19043;51.012;5.648;2023-04-06T05:44:03;24.67;;;15.55;;
32633;SDS011;19043;51.012;5.648;2023-04-06T05:46:28;22.52;;;15.30;;
32633;SDS011;19043;51.012;5.648;2023-04-06T05:48:53;25.58;;;15.40;;
32633;SDS011;19043;51.012;5.648;2023-04-06T05:51:18;24.90;;;14.05;;
32633;SDS011;19043;51.012;5.648;2023-04-06T05:53:44;19.42;;;14.13;;
32633;SDS011;19043;51.012;5.648;2023-04-06T05:56:09;17.58;;;14.00;;
32633;SDS011;19043;51.012;5.648;2023-04-06T05:58:34;21.33;;;13.25;;
32633;SDS011;19043;51.012;5.648;2023-04-06T06:01:00;24.45;;;13.15;;
32633;SDS011;19043;51.012;5.648;2023-04-06T06:03:26;20.40;;;12.40;;
32633;SDS011;19043;51.012;5.648;2023-04-06T06:05:51;25.33;;;12.65;;
32633;SDS011;19043;51.012;5.648;2023-04-06T06:08:16;24.02;;;12.32;;
32633;SDS011;19043;51.012;5.648;2023-04-06T06:10:42;18.10;;;12.55;;
32633;SDS011;19043;51.012;5.648;2023-04-06T06:13:07;19.35;;;11.90;;
32633;SDS011;19043;51.012;5.648;2023-04-06T06:15:33;18.15;;;12.27;;
32633;SDS011;19043;51.012;5.648;2023-04-06T06:17:58;20.30;;;12.15;;
32633;SDS011;19043;51.012;5.648;2023-04-06T06:20:24;20.33;;;12.50;;
32633;SDS011;19043;51.012;5.648;2023-04-06T06:22:50;15.55;;;11.95;;
32633;SDS011;19043;51.012;5.648;2023-04-06T06:25:15;25.85;;;12.02;;
32633;SDS011;19043;51.012;5.648;2023-04-06T06:27:40;17.13;;;11.73;;
32633;SDS011;19043;51.012;5.648;2023-04-06T06:30:06;16.48;;;12.05;;
32633;SDS011;19043;51.012;5.648;2023-04-06T06:32:32;17.70;;;11.82;;
32633;SDS011;19043;51.012;5.648;2023-04-06T06:34:57;15.10;;;11.60;;
32633;SDS011;19043;51.012;5.648;2023-04-06T06:37:22;17.58;;;11.65;;
32633;SDS011;19043;51.012;5.648;2023-04-06T06:39:48;26.42;;;11.05;;
32633;SDS011;19043;51.012;5.648;2023-04-06T06:42:13;17.48;;;11.63;;
32633;SDS011;19043;51.012;5.648;2023-04-06T06:44:39;19.92;;;11.77;;
32633;SDS011;19043;51.012;5.648;2023-04-06T06:47:04;22.02;;;12.95;;
32633;SDS011;19043;51.012;5.648;2023-04-06T06:49:29;17.42;;;12.35;;
32633;SDS011;19043;51.012;5.648;2023-04-06T06:51:54;18.95;;;11.52;;
32633;SDS011;19043;51.012;5.648;2023-04-06T06:54:20;16.05;;;11.52;;
32633;SDS011;19043;51.012;5.648;2023-04-06T06:56:45;20.05;;;11.88;;
32633;SDS011;19043;51.012;5.648;2023-04-06T06:59:10;21.33;;;11.90;;
32633;SDS011;19043;51.012;5.648;2023-04-06T07:01:36;14.85;;;10.88;;
32633;SDS011;19043;51.012;5.648;2023-04-06T07:04:01;20.38;;;11.35;;
32633;SDS011;19043;51.012;5.648;2023-04-06T07:06:26;15.80;;;10.45;;
32633;SDS011;19043;51.012;5.648;2023-04-06T07:08:52;20.75;;;11.60;;
32633;SDS011;19043;51.012;5.648;2023-04-06T07:11:17;19.23;;;11.82;;
32633;SDS011;19043;51.012;5.648;2023-04-06T07:13:42;18.00;;;10.80;;
32633;SDS011;19043;51.012;5.648;2023-04-06T07:16:08;15.35;;;10.82;;
32633;SDS011;19043;51.012;5.648;2023-04-06T07:18:33;20.48;;;11.93;;
32633;SDS011;19043;51.012;5.648;2023-04-06T07:20:58;20.08;;;10.60;;
32633;SDS011;19043;51.012;5.648;2023-04-06T07:23:23;19.20;;;11.52;;
32633;SDS011;19043;51.012;5.648;2023-04-06T07:25:49;17.70;;;11.30;;
32633;SDS011;19043;51.012;5.648;2023-04-06T07:28:17;18.05;;;10.52;;
32633;SDS011;19043;51.012;5.648;2023-04-06T07:30:42;23.60;;;10.43;;
32633;SDS011;19043;51.012;5.648;2023-04-06T07:33:07;16.70;;;10.43;;
32633;SDS011;19043;51.012;5.648;2023-04-06T07:35:33;15.75;;;10.88;;
32633;SDS011;19043;51.012;5.648;2023-04-06T07:37:59;14.73;;;10.32;;
32633;SDS011;19043;51.012;5.648;2023-04-06T07:40:25;22.20;;;11.30;;
32633;SDS011;19043;51.012;5.648;2023-04-06T07:42:51;16.77;;;9.95;;
32633;SDS011;19043;51.012;5.648;2023-04-06T07:45:17;16.75;;;10.23;;
32633;SDS011;19043;51.012;5.648;2023-04-06T07:47:42;17.98;;;10.18;;
32633;SDS011;19043;51.012;5.648;2023-04-06T07:50:07;15.75;;;9.60;;
32633;SDS011;19043;51.012;5.648;2023-04-06T07:52:33;16.35;;;10.23;;
32633;SDS011;19043;51.012;5.648;2023-04-06T07:54:58;20.42;;;9.82;;
32633;SDS011;19043;51.012;5.648;2023-04-06T07:57:24;19.65;;;10.57;;
32633;SDS011;19043;51.012;5.648;2023-04-06T07:59:49;13.32;;;9.77;;
32633;SDS011;19043;51.012;5.648;2023-04-06T08:02:14;15.02;;;10.07;;
32633;SDS011;19043;51.012;5.648;2023-04-06T08:04:40;13.45;;;9.52;;
32633;SDS011;19043;51.012;5.648;2023-04-06T08:07:05;16.88;;;10.27;;
32633;SDS011;19043;51.012;5.648;2023-04-06T08:09:31;15.77;;;11.27;;
32633;SDS011;19043;51.012;5.648;2023-04-06T08:11:57;22.45;;;10.80;;
32633;SDS011;19043;51.012;5.648;2023-04-06T08:14:22;23.70;;;10.85;;
32633;SDS011;19043;51.012;5.648;2023-04-06T08:16:47;19.60;;;9.80;;
32633;SDS011;19043;51.012;5.648;2023-04-06T08:19:13;18.48;;;10.88;;
32633;SDS011;19043;51.012;5.648;2023-04-06T08:21:38;17.42;;;10.35;;
32633;SDS011;19043;51.012;5.648;2023-04-06T08:24:05;18.27;;;10.77;;
32633;SDS011;19043;51.012;5.648;2023-04-06T08:26:31;18.10;;;10.50;;
32633;SDS011;19043;51.012;5.648;2023-04-06T08:28:56;17.90;;;10.70;;
32633;SDS011;19043;51.012;5.648;2023-04-06T08:31:21;21.63;;;11.63;;
32633;SDS011;19043;51.012;5.648;2023-04-06T08:33:46;17.52;;;10.40;;
32633;SDS011;19043;51.012;5.648;2023-04-06T08:36:13;20.25;;;11.85;;
32633;SDS011;19043;51.012;5.648;2023-04-06T08:38:39;19.52;;;10.90;;
32633;SDS011;19043;51.012;5.648;2023-04-06T08:41:11;20.83;;;10.90;;
32633;SDS011;19043;51.012;5.648;2023-04-06T08:43:47;20.17;;;10.20;;
32633;SDS011;19043;51.012;5.648;2023-04-06T08:46:13;17.17;;;11.27;;
32633;SDS011;19043;51.012;5.648;2023-04-06T08:48:40;22.88;;;11.25;;
32633;SDS011;19043;51.012;5.648;2023-04-06T08:51:05;23.27;;;11.88;;
32633;SDS011;19043;51.012;5.648;2023-04-06T08:53:31;15.27;;;10.60;;
32633;SDS011;19043;51.012;5.648;2023-04-06T08:55:56;24.38;;;10.75;;
32633;SDS011;19043;51.012;5.648;2023-04-06T08:58:22;14.05;;;10.25;;
32633;SDS011;19043;51.012;5.648;2023-04-06T09:00:48;23.33;;;10.82;;
32633;SDS011;19043;51.012;5.648;2023-04-06T09:03:14;19.10;;;10.88;;
32633;SDS011;19043;51.012;5.648;2023-04-06T09:05:40;20.95;;;12.07;;
32633;SDS011;19043;51.012;5.648;2023-04-06T09:08:07;18.45;;;10.60;;
32633;SDS011;19043;51.012;5.648;2023-04-06T09:10:32;16.10;;;10.50;;
32633;SDS011;19043;51.012;5.648;2023-04-06T09:13:06;25.00;;;11.18;;
32633;SDS011;19043;51.012;5.648;2023-04-06T09:15:32;16.48;;;10.60;;
32633;SDS011;19043;51.012;5.648;2023-04-06T09:17:57;19.70;;;10.90;;
32633;SDS011;19043;51.012;5.648;2023-04-06T09:20:23;20.48;;;10.00;;
32633;SDS011;19043;51.012;5.648;2023-04-06T09:22:51;16.90;;;9.75;;
32633;SDS011;19043;51.012;5.648;2023-04-06T09:25:20;20.40;;;10.25;;
32633;SDS011;19043;51.012;5.648;2023-04-06T09:27:48;15.70;;;10.48;;
32633;SDS011;19043;51.012;5.648;2023-04-06T09:30:15;13.85;;;8.77;;
32633;SDS011;19043;51.012;5.648;2023-04-06T09:32:48;16.45;;;9.88;;
32633;SDS011;19043;51.012;5.648;2023-04-06T09:35:13;11.88;;;8.68;;
32633;SDS011;19043;51.012;5.648;2023-04-06T09:37:39;15.50;;;9.27;;
32633;SDS011;19043;51.012;5.648;2023-04-06T09:40:05;12.80;;;7.85;;
32633;SDS011;19043;51.012;5.648;2023-04-06T09:42:31;12.93;;;7.60;;
32633;SDS011;19043;51.012;5.648;2023-04-06T09:44:56;15.70;;;9.07;;
32633;SDS011;19043;51.012;5.648;2023-04-06T09:47:22;11.30;;;7.82;;
32633;SDS011;19043;51.012;5.648;2023-04-06T09:49:48;14.18;;;8.38;;
32633;SDS011;19043;51.012;5.648;2023-04-06T09:52:15;11.48;;;8.15;;
32633;SDS011;19043;51.012;5.648;2023-04-06T09:54:41;12.57;;;7.82;;
32633;SDS011;19043;51.012;5.648;2023-04-06T09:57:17;16.23;;;9.18;;
32633;SDS011;19043;51.012;5.648;2023-04-06T10:02:14;17.23;;;7.72;;
32633;SDS011;19043;51.012;5.648;2023-04-06T10:04:43;13.13;;;7.72;;
32633;SDS011;19043;51.012;5.648;2023-04-06T10:07:09;19.42;;;8.25;;
32633;SDS011;19043;51.012;5.648;2023-04-06T10:09:37;13.15;;;8.85;;
32633;SDS011;19043;51.012;5.648;2023-04-06T10:12:05;15.18;;;7.72;;
32633;SDS011;19043;51.012;5.648;2023-04-06T10:14:32;17.60;;;8.27;;
32633;SDS011;19043;51.012;5.648;2023-04-06T10:17:00;11.15;;;7.43;;
32633;SDS011;19043;51.012;5.648;2023-04-06T10:19:28;12.63;;;8.35;;
32633;SDS011;19043;51.012;5.648;2023-04-06T10:21:54;12.52;;;6.97;;
32633;SDS011;19043;51.012;5.648;2023-04-06T10:24:20;14.10;;;7.68;;
32633;SDS011;19043;51.012;5.648;2023-04-06T10:27:01;16.48;;;7.78;;
32633;SDS011;19043;51.012;5.648;2023-04-06T10:29:27;10.40;;;7.18;;
32633;SDS011;19043;51.012;5.648;2023-04-06T10:31:52;9.43;;;6.45;;
32633;SDS011;19043;51.012;5.648;2023-04-06T10:34:17;7.05;;;4.80;;
32633;SDS011;19043;51.012;5.648;2023-04-06T10:36:43;9.90;;;5.53;;
32633;SDS011;19043;51.012;5.648;2023-04-06T10:39:08;9.85;;;6.40;;
32633;SDS011;19043;51.012;5.648;2023-04-06T10:44:02;7.00;;;5.25;;
32633;SDS011;19043;51.012;5.648;2023-04-06T10:46:30;10.75;;;6.43;;
32633;SDS011;19043;51.012;5.648;2023-04-06T10:48:56;9.57;;;7.10;;
32633;SDS011;19043;51.012;5.648;2023-04-06T10:51:27;8.02;;;6.18;;
32633;SDS011;19043;51.012;5.648;2023-04-06T10:53:53;12.82;;;6.72;;
32633;SDS011;19043;51.012;5.648;2023-04-06T10:56:21;8.82;;;7.30;;
32633;SDS011;19043;51.012;5.648;2023-04-06T11:01:11;13.57;;;7.97;;
32633;SDS011;19043;51.012;5.648;2023-04-06T11:03:43;11.88;;;7.60;;
32633;SDS011;19043;51.012;5.648;2023-04-06T11:06:09;12.90;;;6.90;;
32633;SDS011;19043;51.012;5.648;2023-04-06T11:08:35;9.25;;;7.32;;
32633;SDS011;19043;51.012;5.648;2023-04-06T11:11:11;12.13;;;7.72;;
32633;SDS011;19043;51.012;5.648;2023-04-06T11:13:48;10.40;;;7.80;;
32633;SDS011;19043;51.012;5.648;2023-04-06T11:16:20;9.90;;;7.47;;
32633;SDS011;19043;51.012;5.648;2023-04-06T11:18:56;13.15;;;7.93;;
32633;SDS011;19043;51.012;5.648;2023-04-06T11:21:38;13.10;;;8.52;;
32633;SDS011;19043;51.012;5.648;2023-04-06T11:24:13;13.25;;;7.85;;
32633;SDS011;19043;51.012;5.648;2023-04-06T11:26:45;10.88;;;7.63;;
32633;SDS011;19043;51.012;5.648;2023-04-06T11:29:15;11.02;;;8.40;;
32633;SDS011;19043;51.012;5.648;2023-04-06T11:31:45;14.23;;;7.80;;
32633;SDS011;19043;51.012;5.648;2023-04-06T11:34:17;12.32;;;8.35;;
32633;SDS011;19043;51.012;5.648;2023-04-06T11:36:43;11.23;;;8.60;;
32633;SDS011;19043;51.012;5.648;2023-04-06T11:39:09;13.20;;;7.95;;
32633;SDS011;19043;51.012;5.648;2023-04-06T11:41:35;13.50;;;8.73;;
32633;SDS011;19043;51.012;5.648;2023-04-06T11:44:01;13.25;;;9.55;;
32633;SDS011;19043;51.012;5.648;2023-04-06T11:46:27;11.85;;;9.48;;
32633;SDS011;19043;51.012;5.648;2023-04-06T11:48:53;12.93;;;8.38;;
32633;SDS011;19043;51.012;5.648;2023-04-06T11:51:22;12.85;;;9.40;;
32633;SDS011;19043;51.012;5.648;2023-04-06T11:53:51;12.05;;;8.80;;
32633;SDS011;19043;51.012;5.648;2023-04-06T11:56:23;14.20;;;8.75;;
32633;SDS011;19043;51.012;5.648;2023-04-06T11:58:49;11.15;;;9.23;;
32633;SDS011;19043;51.012;5.648;2023-04-06T12:01:14;14.25;;;9.20;;
32633;SDS011;19043;51.012;5.648;2023-04-06T12:03:40;15.13;;;8.98;;
32633;SDS011;19043;51.012;5.648;2023-04-06T12:06:05;17.05;;;10.20;;
32633;SDS011;19043;51.012;5.648;2023-04-06T12:08:30;13.32;;;10.10;;
32633;SDS011;19043;51.012;5.648;2023-04-06T12:10:56;14.48;;;10.30;;
32633;SDS011;19043;51.012;5.648;2023-04-06T12:13:21;13.98;;;9.15;;
32633;SDS011;19043;51.012;5.648;2023-04-06T12:15:46;14.50;;;10.35;;
32633;SDS011;19043;51.012;5.648;2023-04-06T12:18:11;16.48;;;9.73;;
32633;SDS011;19043;51.012;5.648;2023-04-06T12:20:37;15.90;;;10.40;;
32633;SDS011;19043;51.012;5.648;2023-04-06T12:23:02;13.32;;;10.00;;
32633;SDS011;19043;51.012;5.648;2023-04-06T12:25:27;15.95;;;9.98;;
32633;SDS011;19043;51.012;5.648;2023-04-06T12:27:53;17.33;;;11.52;;
32633;SDS011;19043;51.012;5.648;2023-04-06T12:30:18;15.00;;;10.18;;
32633;SDS011;19043;51.012;5.648;2023-04-06T12:32:43;13.25;;;10.57;;
32633;SDS011;19043;51.012;5.648;2023-04-06T12:35:09;17.20;;;10.52;;
32633;SDS011;19043;51.012;5.648;2023-04-06T12:37:34;13.82;;;11.00;;
32633;SDS011;19043;51.012;5.648;2023-04-06T12:39:59;18.08;;;11.32;;
32633;SDS011;19043;51.012;5.648;2023-04-06T12:42:25;17.65;;;12.75;;
32633;SDS011;19043;51.012;5.648;2023-04-06T12:44:51;20.85;;;11.68;;
32633;SDS011;19043;51.012;5.648;2023-04-06T12:47:16;20.00;;;12.25;;
32633;SDS011;19043;51.012;5.648;2023-04-06T12:49:43;16.73;;;11.52;;
32633;SDS011;19043;51.012;5.648;2023-04-06T12:52:08;15.85;;;12.27;;
32633;SDS011;19043;51.012;5.648;2023-04-06T12:54:34;14.27;;;10.48;;
32633;SDS011;19043;51.012;5.648;2023-04-06T12:56:59;15.40;;;10.75;;
32633;SDS011;19043;51.012;5.648;2023-04-06T12:59:25;16.05;;;11.02;;
32633;SDS011;19043;51.012;5.648;2023-04-06T13:01:51;17.27;;;10.30;;
32633;SDS011;19043;51.012;5.648;2023-04-06T13:04:17;14.60;;;10.90;;
32633;SDS011;19043;51.012;5.648;2023-04-06T13:06:42;13.05;;;9.75;;
32633;SDS011;19043;51.012;5.648;2023-04-06T13:09:08;16.27;;;11.57;;
32633;SDS011;19043;51.012;5.648;2023-04-06T13:11:33;15.18;;;11.05;;
32633;SDS011;19043;51.012;5.648;2023-04-06T13:13:58;13.10;;;9.68;;
32633;SDS011;19043;51.012;5.648;2023-04-06T13:16:23;15.63;;;9.55;;
32633;SDS011;19043;51.012;5.648;2023-04-06T13:18:49;12.35;;;8.90;;
32633;SDS011;19043;51.012;5.648;2023-04-06T13:21:15;10.13;;;8.35;;
32633;SDS011;19043;51.012;5.648;2023-04-06T13:23:45;10.75;;;8.35;;
32633;SDS011;19043;51.012;5.648;2023-04-06T13:26:10;11.57;;;7.95;;
32633;SDS011;19043;51.012;5.648;2023-04-06T13:28:38;11.90;;;7.95;;
32633;SDS011;19043;51.012;5.648;2023-04-06T13:31:03;11.77;;;8.35;;
32633;SDS011;19043;51.012;5.648;2023-04-06T13:33:29;11.45;;;8.15;;
32633;SDS011;19043;51.012;5.648;2023-04-06T13:35:55;12.65;;;8.95;;
32633;SDS011;19043;51.012;5.648;2023-04-06T13:38:20;11.93;;;7.57;;
32633;SDS011;19043;51.012;5.648;2023-04-06T13:40:46;10.93;;;7.50;;
32633;SDS011;19043;51.012;5.648;2023-04-06T13:43:11;10.88;;;7.65;;
32633;SDS011;19043;51.012;5.648;2023-04-06T13:45:37;10.13;;;7.97;;
32633;SDS011;19043;51.012;5.648;2023-04-06T13:48:02;12.45;;;7.63;;
32633;SDS011;19043;51.012;5.648;2023-04-06T13:50:28;18.45;;;7.80;;
32633;SDS011;19043;51.012;5.648;2023-04-06T13:52:53;10.00;;;7.60;;
32633;SDS011;19043;51.012;5.648;2023-04-06T13:55:19;11.38;;;7.55;;
32633;SDS011;19043;51.012;5.648;2023-04-06T13:57:44;9.77;;;7.07;;
32633;SDS011;19043;51.012;5.648;2023-04-06T14:00:09;10.73;;;7.95;;
32633;SDS011;19043;51.012;5.648;2023-04-06T14:02:37;11.57;;;8.23;;
32633;SDS011;19043;51.012;5.648;2023-04-06T14:05:02;12.65;;;7.65;;
32633;SDS011;19043;51.012;5.648;2023-04-06T14:07:28;10.32;;;7.72;;
32633;SDS011;19043;51.012;5.648;2023-04-06T14:09:53;11.35;;;7.15;;
32633;SDS011;19043;51.012;5.648;2023-04-06T14:12:18;8.05;;;6.38;;
32633;SDS011;19043;51.012;5.648;2023-04-06T14:14:44;9.98;;;6.70;;
32633;SDS011;19043;51.012;5.648;2023-04-06T14:17:09;8.82;;;6.03;;
32633;SDS011;19043;51.012;5.648;2023-04-06T14:19:35;9.75;;;6.78;;
32633;SDS011;19043;51.012;5.648;2023-04-06T14:22:01;9.32;;;7.25;;
32633;SDS011;19043;51.012;5.648;2023-04-06T14:24:26;10.48;;;6.63;;
32633;SDS011;19043;51.012;5.648;2023-04-06T14:26:52;10.27;;;6.90;;